createdAt,value
2023-02-13T06:02:33.155Z,3.78
2023-02-13T06:07:37.247Z,3.58
2023-02-13T06:12:40.841Z,2.42
2023-02-13T06:17:45.862Z,3.25
2023-02-13T06:22:50.393Z,3.35
2023-02-13T06:27:54.057Z,3.62
2023-02-13T06:32:59.160Z,2.90
2023-02-13T06:38:02.932Z,2.92
2023-02-13T06:43:06.563Z,2.58
2023-02-13T06:48:11.629Z,2.55
2023-02-13T06:53:15.370Z,2.95
2023-02-13T06:58:19.783Z,1.92
2023-02-13T07:03:24.768Z,2.75
2023-02-13T07:08:28.636Z,3.17
2023-02-13T07:13:32.616Z,2.97
2023-02-13T07:18:38.589Z,2.30
2023-02-13T07:23:42.394Z,3.67
2023-02-13T07:28:46.319Z,3.17
2023-02-13T07:38:54.967Z,2.85
2023-02-13T07:43:58.726Z,2.85
2023-02-13T07:49:06.049Z,2.72
2023-02-13T07:54:10.212Z,3.50
2023-02-13T07:59:14.046Z,2.87
2023-02-13T08:04:19.313Z,2.47
2023-02-13T08:09:40.966Z,2.67
2023-02-13T08:14:44.847Z,2.65
2023-02-13T08:19:49.974Z,2.65
2023-02-13T08:24:53.649Z,2.83
2023-02-13T08:29:57.775Z,2.35
2023-02-13T08:35:02.923Z,3.17
2023-02-13T08:40:10.490Z,2.28
2023-02-13T08:45:14.121Z,3.83
2023-02-13T08:50:19.479Z,2.00
2023-02-13T08:55:23.301Z,2.37
2023-02-13T09:00:26.973Z,2.17
2023-02-13T09:05:33.059Z,1.83
2023-02-13T09:10:36.838Z,2.45
2023-02-13T09:15:41.290Z,2.17
2023-02-13T09:20:46.436Z,2.62
2023-02-13T09:25:50.098Z,3.08
2023-02-13T09:30:53.928Z,2.42
2023-02-13T09:35:59.220Z,3.05
2023-02-13T09:41:07.625Z,2.78
2023-02-13T09:46:16.754Z,3.00
2023-02-13T09:51:23.793Z,3.00
2023-02-13T09:56:40.355Z,3.22
2023-02-13T10:01:48.971Z,3.92
2023-02-13T10:06:59.902Z,2.50
2023-02-13T10:12:27.226Z,2.55
2023-02-13T10:17:36.891Z,3.05
2023-02-13T10:22:45.721Z,2.78
2023-02-13T10:27:53.151Z,2.97
2023-02-13T10:33:19.958Z,3.22
2023-02-13T10:38:25.840Z,2.78
2023-02-13T10:43:35.481Z,2.55
2023-02-13T10:49:03.003Z,2.85
2023-02-13T10:54:35.135Z,2.97
2023-02-13T10:59:54.104Z,2.62
2023-02-13T11:05:02.229Z,2.75
2023-02-13T11:10:17.942Z,3.35
2023-02-13T11:15:25.726Z,3.12
2023-02-13T11:20:36.514Z,3.83
2023-02-13T11:25:41.713Z,4.10
2023-02-13T11:30:45.618Z,4.12
2023-02-13T11:35:49.589Z,4.50
2023-02-13T11:41:07.772Z,4.55
2023-02-13T11:46:19.612Z,4.18
2023-02-13T11:51:37.427Z,4.32
2023-02-13T11:57:03.720Z,4.78
2023-02-13T12:02:16.501Z,4.95
2023-02-13T12:07:26.588Z,4.57
2023-02-13T12:12:40.420Z,4.40
2023-02-13T12:17:46.687Z,5.80
2023-02-13T12:23:02.445Z,4.85
2023-02-13T12:28:14.205Z,4.95
2023-02-13T12:33:36.824Z,5.50
2023-02-13T12:38:54.128Z,5.50
2023-02-13T12:44:45.975Z,5.37
2023-02-13T12:50:25.001Z,4.68
2023-02-13T12:55:44.131Z,4.72
2023-02-13T13:00:58.882Z,5.18
2023-02-13T13:06:19.709Z,5.30
2023-02-13T13:11:45.572Z,4.60
2023-02-13T13:16:57.656Z,4.40
2023-02-13T13:22:06.777Z,5.22
2023-02-13T13:27:19.349Z,4.12
2023-02-13T13:32:25.455Z,3.35
2023-02-13T13:37:36.299Z,3.15
2023-02-13T13:42:44.286Z,3.87
2023-02-13T13:48:01.789Z,3.42
2023-02-13T13:53:11.906Z,4.20
2023-02-13T13:58:23.583Z,3.53
2023-02-13T14:03:37.449Z,2.75
2023-02-13T14:09:03.824Z,3.87
2023-02-13T14:14:53.763Z,4.25
2023-02-13T14:19:59.509Z,3.65
2023-02-13T14:25:06.582Z,3.47
2023-02-13T14:30:29.328Z,3.80
2023-02-13T14:35:38.078Z,3.42
2023-02-13T14:40:51.097Z,2.87
2023-02-13T14:45:57.781Z,2.87
2023-02-13T14:51:04.406Z,3.40
2023-02-13T14:56:12.994Z,3.08
2023-02-13T15:01:26.121Z,3.70
2023-02-13T15:06:34.500Z,4.60
2023-02-13T15:11:40.104Z,3.12
2023-02-13T15:16:44.819Z,3.30
2023-02-13T15:21:53.354Z,3.78
2023-02-13T15:27:02.472Z,4.57
2023-02-13T15:32:21.720Z,3.35
2023-02-13T15:37:30.323Z,5.05
2023-02-13T15:42:34.249Z,4.80
2023-02-13T15:47:38.579Z,4.15
2023-02-13T15:52:43.749Z,3.35
2023-02-13T15:57:48.166Z,4.07
2023-02-13T16:02:53.980Z,4.87
2023-02-13T16:08:01.477Z,4.10
2023-02-13T16:13:07.421Z,4.12
2023-02-13T16:18:21.157Z,3.97
2023-02-13T16:23:26.219Z,3.17
2023-02-13T16:28:32.784Z,3.87
2023-02-13T16:33:38.964Z,3.80
2023-02-13T16:38:45.793Z,3.53
2023-02-13T16:43:51.752Z,4.03
2023-02-13T16:49:16.267Z,3.92
2023-02-13T16:54:26.516Z,3.75
2023-02-13T16:59:34.737Z,4.47
2023-02-13T17:04:39.318Z,4.10
2023-02-13T17:09:44.478Z,3.55
2023-02-13T17:14:48.548Z,3.97
2023-02-13T17:19:52.356Z,4.57
2023-02-13T17:24:57.569Z,3.30
2023-02-13T17:30:01.360Z,4.20
2023-02-13T17:35:05.382Z,3.97
2023-02-13T17:40:17.429Z,3.62
2023-02-13T17:45:23.932Z,4.03
2023-02-13T17:50:28.096Z,4.00
2023-02-13T17:55:35.101Z,3.35
2023-02-13T18:00:38.718Z,3.25
2023-02-13T18:05:42.784Z,3.75
2023-02-13T18:10:47.870Z,3.80
2023-02-13T18:15:52.278Z,3.00
2023-02-13T18:26:10.132Z,2.80
2023-02-13T18:31:14.430Z,3.17
2023-02-13T18:36:18.113Z,3.30
2023-02-13T18:41:23.206Z,2.83
2023-02-13T18:46:26.919Z,3.05
2023-02-13T18:51:31.057Z,3.67
2023-02-13T18:56:36.144Z,3.42
2023-02-13T19:01:40.080Z,3.90
2023-02-13T19:06:44.885Z,4.03
2023-02-13T19:11:49.968Z,4.75
2023-02-13T19:16:53.933Z,4.15
2023-02-13T19:21:57.794Z,4.72
2023-02-13T19:27:03.399Z,4.18
2023-02-13T19:32:07.308Z,3.28
2023-02-13T19:37:11.013Z,4.10
2023-02-13T19:42:16.319Z,5.00
2023-02-13T19:47:19.960Z,3.92
2023-02-13T19:52:24.173Z,4.50
2023-02-13T19:57:29.528Z,4.65
2023-02-13T20:02:33.602Z,5.18
2023-02-13T20:07:37.296Z,4.25
2023-02-13T20:12:42.276Z,4.83
2023-02-13T20:17:45.958Z,4.93
2023-02-13T20:22:50.123Z,4.43
2023-02-13T20:27:55.239Z,4.72
2023-02-13T20:32:59.408Z,4.35
2023-02-13T20:38:03.472Z,4.53
2023-02-13T20:43:08.550Z,3.75
2023-02-13T20:48:12.161Z,4.00
2023-02-13T20:53:15.876Z,4.20
2023-02-13T20:58:20.960Z,5.50
2023-02-13T21:03:24.652Z,5.65
2023-02-13T21:08:28.279Z,5.62
2023-02-13T21:13:33.963Z,9.00
2023-02-13T21:18:38.226Z,5.57
2023-02-13T21:23:42.174Z,5.85
2023-02-13T21:28:49.279Z,7.18
2023-02-13T21:33:53.257Z,5.32
2023-02-13T21:38:56.990Z,7.03
2023-02-13T21:44:02.226Z,5.18
2023-02-13T21:49:08.308Z,5.22
2023-02-13T21:54:13.164Z,6.78
2023-02-13T21:59:19.036Z,5.80
2023-02-13T22:04:22.789Z,6.55
2023-02-13T22:09:27.645Z,6.97
2023-02-13T22:14:32.690Z,6.22
2023-02-13T22:19:36.360Z,6.25
2023-02-13T22:24:39.988Z,5.72
2023-02-13T22:29:44.992Z,5.85
2023-02-13T22:34:49.772Z,6.22
2023-02-13T22:39:53.381Z,5.55
2023-02-13T22:44:58.312Z,6.97
2023-02-13T22:50:02.411Z,6.25
2023-02-13T22:55:06.646Z,6.35
2023-02-13T23:00:14.031Z,6.85
2023-02-13T23:05:18.234Z,7.00
2023-02-13T23:10:25.906Z,5.70
2023-02-13T23:15:34.508Z,7.00
2023-02-13T23:20:38.411Z,6.55
2023-02-13T23:25:42.087Z,7.30
